sensor_id;sensor_type;location;lat;lon;timestamp;P1;durP1;ratioP1;P2;durP2;ratioP2
10383;SDS011;5238;43.508;4.980;2024-01-15T00:01:07;83.13;;;40.95;;
10383;SDS011;5238;43.508;4.980;2024-01-15T00:03:36;74.55;;;42.00;;
10383;SDS011;5238;43.508;4.980;2024-01-15T00:06:03;73.47;;;41.13;;
10383;SDS011;5238;43.508;4.980;2024-01-15T00:08:30;66.50;;;38.33;;
10383;SDS011;5238;43.508;4.980;2024-01-15T00:10:57;67.72;;;39.08;;
10383;SDS011;5238;43.508;4.980;2024-01-15T00:13:24;72.45;;;39.58;;
10383;SDS011;5238;43.508;4.980;2024-01-15T00:15:51;80.55;;;41.10;;
10383;SDS011;5238;43.508;4.980;2024-01-15T00:18:18;76.40;;;42.67;;
10383;SDS011;5238;43.508;4.980;2024-01-15T00:20:46;89.53;;;45.60;;
10383;SDS011;5238;43.508;4.980;2024-01-15T00:23:13;93.78;;;46.10;;
10383;SDS011;5238;43.508;4.980;2024-01-15T00:25:40;86.50;;;43.03;;
10383;SDS011;5238;43.508;4.980;2024-01-15T00:28:07;80.32;;;42.15;;
10383;SDS011;5238;43.508;4.980;2024-01-15T00:30:34;76.85;;;40.10;;
10383;SDS011;5238;43.508;4.980;2024-01-15T00:33:01;80.05;;;40.55;;
10383;SDS011;5238;43.508;4.980;2024-01-15T00:35:29;79.55;;;40.33;;
10383;SDS011;5238;43.508;4.980;2024-01-15T00:37:57;73.43;;;37.33;;
10383;SDS011;5238;43.508;4.980;2024-01-15T00:40:24;61.70;;;33.72;;
10383;SDS011;5238;43.508;4.980;2024-01-15T00:42:51;53.08;;;29.38;;
10383;SDS011;5238;43.508;4.980;2024-01-15T00:45:18;54.08;;;30.05;;
10383;SDS011;5238;43.508;4.980;2024-01-15T00:47:45;53.72;;;28.75;;
10383;SDS011;5238;43.508;4.980;2024-01-15T00:50:12;58.95;;;30.05;;
10383;SDS011;5238;43.508;4.980;2024-01-15T00:52:39;48.38;;;27.52;;
10383;SDS011;5238;43.508;4.980;2024-01-15T00:55:08;49.25;;;28.25;;
10383;SDS011;5238;43.508;4.980;2024-01-15T00:57:35;45.50;;;27.30;;
10383;SDS011;5238;43.508;4.980;2024-01-15T01:00:02;44.42;;;25.50;;
10383;SDS011;5238;43.508;4.980;2024-01-15T01:02:29;41.58;;;24.88;;
10383;SDS011;5238;43.508;4.980;2024-01-15T01:04:56;48.30;;;23.75;;
10383;SDS011;5238;43.508;4.980;2024-01-15T01:07:23;39.10;;;25.00;;
10383;SDS011;5238;43.508;4.980;2024-01-15T01:09:50;38.42;;;22.52;;
10383;SDS011;5238;43.508;4.980;2024-01-15T01:12:18;37.42;;;22.92;;
10383;SDS011;5238;43.508;4.980;2024-01-15T01:14:46;39.13;;;22.38;;
10383;SDS011;5238;43.508;4.980;2024-01-15T01:17:13;31.40;;;19.58;;
10383;SDS011;5238;43.508;4.980;2024-01-15T01:19:40;37.08;;;20.88;;
10383;SDS011;5238;43.508;4.980;2024-01-15T01:22:07;40.55;;;22.40;;
10383;SDS011;5238;43.508;4.980;2024-01-15T01:24:34;41.03;;;23.70;;
10383;SDS011;5238;43.508;4.980;2024-01-15T01:27:01;42.03;;;23.15;;
10383;SDS011;5238;43.508;4.980;2024-01-15T01:29:29;34.25;;;19.67;;
10383;SDS011;5238;43.508;4.980;2024-01-15T01:31:56;29.10;;;17.83;;
10383;SDS011;5238;43.508;4.980;2024-01-15T01:34:23;28.17;;;16.50;;
10383;SDS011;5238;43.508;4.980;2024-01-15T01:36:50;27.83;;;16.48;;
10383;SDS011;5238;43.508;4.980;2024-01-15T01:39:17;27.70;;;17.23;;
10383;SDS011;5238;43.508;4.980;2024-01-15T01:41:44;30.02;;;18.25;;
10383;SDS011;5238;43.508;4.980;2024-01-15T01:44:11;30.83;;;17.30;;
10383;SDS011;5238;43.508;4.980;2024-01-15T01:46:39;30.55;;;17.38;;
10383;SDS011;5238;43.508;4.980;2024-01-15T01:49:07;28.10;;;16.15;;
10383;SDS011;5238;43.508;4.980;2024-01-15T01:51:35;24.85;;;14.60;;
10383;SDS011;5238;43.508;4.980;2024-01-15T01:54:03;24.88;;;15.65;;
10383;SDS011;5238;43.508;4.980;2024-01-15T01:56:31;26.35;;;15.45;;
10383;SDS011;5238;43.508;4.980;2024-01-15T01:58:59;29.90;;;17.52;;
10383;SDS011;5238;43.508;4.980;2024-01-15T02:01:27;55.78;;;31.15;;
10383;SDS011;5238;43.508;4.980;2024-01-15T02:03:56;48.92;;;24.67;;
10383;SDS011;5238;43.508;4.980;2024-01-15T02:06:23;31.80;;;18.90;;
10383;SDS011;5238;43.508;4.980;2024-01-15T02:08:51;27.02;;;16.33;;
10383;SDS011;5238;43.508;4.980;2024-01-15T02:11:18;27.30;;;15.40;;
10383;SDS011;5238;43.508;4.980;2024-01-15T02:13:45;28.48;;;16.67;;
10383;SDS011;5238;43.508;4.980;2024-01-15T02:16:12;35.97;;;22.55;;
10383;SDS011;5238;43.508;4.980;2024-01-15T02:18:40;41.40;;;23.23;;
10383;SDS011;5238;43.508;4.980;2024-01-15T02:21:09;35.15;;;21.13;;
10383;SDS011;5238;43.508;4.980;2024-01-15T02:23:38;29.70;;;18.05;;
10383;SDS011;5238;43.508;4.980;2024-01-15T02:26:05;28.65;;;17.52;;
10383;SDS011;5238;43.508;4.980;2024-01-15T02:28:33;27.83;;;17.25;;
10383;SDS011;5238;43.508;4.980;2024-01-15T02:31:00;29.70;;;17.30;;
10383;SDS011;5238;43.508;4.980;2024-01-15T02:33:27;26.38;;;16.25;;
10383;SDS011;5238;43.508;4.980;2024-01-15T02:35:54;23.73;;;15.85;;
10383;SDS011;5238;43.508;4.980;2024-01-15T02:38:21;23.15;;;13.48;;
10383;SDS011;5238;43.508;4.980;2024-01-15T02:40:49;23.38;;;14.20;;
10383;SDS011;5238;43.508;4.980;2024-01-15T02:43:17;23.50;;;14.05;;
10383;SDS011;5238;43.508;4.980;2024-01-15T02:45:44;26.08;;;14.63;;
10383;SDS011;5238;43.508;4.980;2024-01-15T02:48:12;22.40;;;14.45;;
10383;SDS011;5238;43.508;4.980;2024-01-15T02:50:39;22.35;;;14.15;;
10383;SDS011;5238;43.508;4.980;2024-01-15T02:53:06;24.73;;;14.35;;
10383;SDS011;5238;43.508;4.980;2024-01-15T02:55:33;23.83;;;14.63;;
10383;SDS011;5238;43.508;4.980;2024-01-15T02:58:01;21.55;;;13.43;;
10383;SDS011;5238;43.508;4.980;2024-01-15T03:00:28;21.25;;;13.43;;
10383;SDS011;5238;43.508;4.980;2024-01-15T03:02:55;22.63;;;13.40;;
10383;SDS011;5238;43.508;4.980;2024-01-15T03:05:21;25.63;;;14.07;;
10383;SDS011;5238;43.508;4.980;2024-01-15T03:07:48;20.10;;;12.60;;
10383;SDS011;5238;43.508;4.980;2024-01-15T03:10:15;22.85;;;13.93;;
10383;SDS011;5238;43.508;4.980;2024-01-15T03:12:42;21.42;;;12.63;;
10383;SDS011;5238;43.508;4.980;2024-01-15T03:15:11;18.73;;;12.10;;
10383;SDS011;5238;43.508;4.980;2024-01-15T03:17:38;19.77;;;12.23;;
10383;SDS011;5238;43.508;4.980;2024-01-15T03:20:05;23.13;;;13.32;;
10383;SDS011;5238;43.508;4.980;2024-01-15T03:22:33;17.13;;;12.75;;
10383;SDS011;5238;43.508;4.980;2024-01-15T03:24:59;20.05;;;12.20;;
10383;SDS011;5238;43.508;4.980;2024-01-15T03:27:26;22.13;;;12.27;;
10383;SDS011;5238;43.508;4.980;2024-01-15T03:29:53;19.65;;;11.98;;
10383;SDS011;5238;43.508;4.980;2024-01-15T03:32:22;18.95;;;11.68;;
10383;SDS011;5238;43.508;4.980;2024-01-15T03:34:49;20.83;;;12.02;;
10383;SDS011;5238;43.508;4.980;2024-01-15T03:37:17;16.40;;;12.45;;
10383;SDS011;5238;43.508;4.980;2024-01-15T03:39:44;17.67;;;11.00;;
10383;SDS011;5238;43.508;4.980;2024-01-15T03:42:11;21.25;;;11.57;;
10383;SDS011;5238;43.508;4.980;2024-01-15T03:44:39;15.40;;;10.52;;
10383;SDS011;5238;43.508;4.980;2024-01-15T03:47:06;18.95;;;10.85;;
10383;SDS011;5238;43.508;4.980;2024-01-15T03:49:34;17.88;;;11.60;;
10383;SDS011;5238;43.508;4.980;2024-01-15T03:52:01;19.77;;;11.35;;
10383;SDS011;5238;43.508;4.980;2024-01-15T03:54:28;19.73;;;11.68;;
10383;SDS011;5238;43.508;4.980;2024-01-15T03:56:55;19.08;;;11.50;;
10383;SDS011;5238;43.508;4.980;2024-01-15T03:59:22;20.13;;;10.63;;
10383;SDS011;5238;43.508;4.980;2024-01-15T04:01:49;22.13;;;11.70;;
10383;SDS011;5238;43.508;4.980;2024-01-15T04:04:16;19.27;;;11.30;;
10383;SDS011;5238;43.508;4.980;2024-01-15T04:06:45;17.92;;;10.52;;
10383;SDS011;5238;43.508;4.980;2024-01-15T04:09:12;19.00;;;11.25;;
10383;SDS011;5238;43.508;4.980;2024-01-15T04:11:40;22.38;;;12.65;;
10383;SDS011;5238;43.508;4.980;2024-01-15T04:14:07;22.35;;;11.55;;
10383;SDS011;5238;43.508;4.980;2024-01-15T04:16:34;18.05;;;11.15;;
10383;SDS011;5238;43.508;4.980;2024-01-15T04:19:01;17.73;;;11.00;;
10383;SDS011;5238;43.508;4.980;2024-01-15T04:21:28;20.17;;;11.48;;
10383;SDS011;5238;43.508;4.980;2024-01-15T04:23:56;18.23;;;11.38;;
10383;SDS011;5238;43.508;4.980;2024-01-15T04:26:23;19.38;;;11.68;;
10383;SDS011;5238;43.508;4.980;2024-01-15T04:28:50;17.85;;;10.82;;
10383;SDS011;5238;43.508;4.980;2024-01-15T04:31:20;18.77;;;12.18;;
10383;SDS011;5238;43.508;4.980;2024-01-15T04:33:48;19.27;;;12.25;;
10383;SDS011;5238;43.508;4.980;2024-01-15T04:36:15;18.23;;;10.63;;
10383;SDS011;5238;43.508;4.980;2024-01-15T04:38:42;16.15;;;9.80;;
10383;SDS011;5238;43.508;4.980;2024-01-15T04:41:11;18.35;;;11.70;;
10383;SDS011;5238;43.508;4.980;2024-01-15T04:43:38;20.13;;;12.50;;
10383;SDS011;5238;43.508;4.980;2024-01-15T04:46:05;19.48;;;11.60;;
10383;SDS011;5238;43.508;4.980;2024-01-15T04:48:32;21.73;;;11.13;;
10383;SDS011;5238;43.508;4.980;2024-01-15T04:51:00;17.77;;;11.65;;
10383;SDS011;5238;43.508;4.980;2024-01-15T04:53:27;21.30;;;11.80;;
10383;SDS011;5238;43.508;4.980;2024-01-15T04:55:54;18.70;;;11.38;;
10383;SDS011;5238;43.508;4.980;2024-01-15T04:58:22;17.90;;;11.60;;
10383;SDS011;5238;43.508;4.980;2024-01-15T05:00:51;19.70;;;11.65;;
10383;SDS011;5238;43.508;4.980;2024-01-15T05:03:19;24.75;;;12.52;;
10383;SDS011;5238;43.508;4.980;2024-01-15T05:05:46;21.00;;;11.48;;
10383;SDS011;5238;43.508;4.980;2024-01-15T05:08:13;20.63;;;12.88;;
10383;SDS011;5238;43.508;4.980;2024-01-15T05:10:40;27.02;;;14.38;;
10383;SDS011;5238;43.508;4.980;2024-01-15T05:13:07;18.80;;;11.30;;
10383;SDS011;5238;43.508;4.980;2024-01-15T05:15:35;22.30;;;12.77;;
10383;SDS011;5238;43.508;4.980;2024-01-15T05:18:02;18.67;;;11.90;;
10383;SDS011;5238;43.508;4.980;2024-01-15T05:20:29;20.83;;;13.70;;
10383;SDS011;5238;43.508;4.980;2024-01-15T05:22:56;21.58;;;12.27;;
10383;SDS011;5238;43.508;4.980;2024-01-15T05:25:23;20.20;;;12.35;;
10383;SDS011;5238;43.508;4.980;2024-01-15T05:27:50;21.23;;;13.10;;
10383;SDS011;5238;43.508;4.980;2024-01-15T05:30:17;18.02;;;11.35;;
10383;SDS011;5238;43.508;4.980;2024-01-15T05:32:45;19.60;;;12.00;;
10383;SDS011;5238;43.508;4.980;2024-01-15T05:35:12;16.30;;;11.05;;
10383;SDS011;5238;43.508;4.980;2024-01-15T05:37:41;17.75;;;10.52;;
10383;SDS011;5238;43.508;4.980;2024-01-15T05:40:09;20.15;;;11.23;;
10383;SDS011;5238;43.508;4.980;2024-01-15T05:42:37;17.20;;;10.00;;
10383;SDS011;5238;43.508;4.980;2024-01-15T05:45:05;17.02;;;10.80;;
10383;SDS011;5238;43.508;4.980;2024-01-15T05:47:32;21.38;;;11.15;;
10383;SDS011;5238;43.508;4.980;2024-01-15T05:50:01;16.63;;;10.23;;
10383;SDS011;5238;43.508;4.980;2024-01-15T05:52:29;14.10;;;9.73;;
10383;SDS011;5238;43.508;4.980;2024-01-15T05:54:56;15.57;;;9.35;;
10383;SDS011;5238;43.508;4.980;2024-01-15T05:57:23;12.68;;;8.50;;
10383;SDS011;5238;43.508;4.980;2024-01-15T05:59:50;13.63;;;8.88;;
10383;SDS011;5238;43.508;4.980;2024-01-15T06:02:17;14.55;;;9.10;;
10383;SDS011;5238;43.508;4.980;2024-01-15T06:04:44;11.80;;;8.35;;
10383;SDS011;5238;43.508;4.980;2024-01-15T06:07:12;15.30;;;8.73;;
10383;SDS011;5238;43.508;4.980;2024-01-15T06:09:39;12.43;;;9.05;;
10383;SDS011;5238;43.508;4.980;2024-01-15T06:12:07;18.05;;;8.13;;
10383;SDS011;5238;43.508;4.980;2024-01-15T06:14:34;16.45;;;8.73;;
10383;SDS011;5238;43.508;4.980;2024-01-15T06:17:01;11.90;;;7.65;;
10383;SDS011;5238;43.508;4.980;2024-01-15T06:19:28;12.68;;;8.40;;
10383;SDS011;5238;43.508;4.980;2024-01-15T06:21:55;12.20;;;7.90;;
10383;SDS011;5238;43.508;4.980;2024-01-15T06:24:23;12.68;;;8.82;;
10383;SDS011;5238;43.508;4.980;2024-01-15T06:26:50;13.70;;;8.88;;
10383;SDS011;5238;43.508;4.980;2024-01-15T06:29:18;12.63;;;8.68;;
10383;SDS011;5238;43.508;4.980;2024-01-15T06:31:45;15.05;;;9.52;;
10383;SDS011;5238;43.508;4.980;2024-01-15T06:34:12;15.38;;;10.60;;
10383;SDS011;5238;43.508;4.980;2024-01-15T06:36:39;12.52;;;8.40;;
10383;SDS011;5238;43.508;4.980;2024-01-15T06:39:06;14.63;;;9.13;;
10383;SDS011;5238;43.508;4.980;2024-01-15T06:41:34;13.55;;;8.75;;
10383;SDS011;5238;43.508;4.980;2024-01-15T06:44:06;14.68;;;9.57;;
10383;SDS011;5238;43.508;4.980;2024-01-15T06:46:34;16.52;;;8.82;;
10383;SDS011;5238;43.508;4.980;2024-01-15T06:49:01;16.58;;;8.93;;
10383;SDS011;5238;43.508;4.980;2024-01-15T06:51:29;15.20;;;9.50;;
10383;SDS011;5238;43.508;4.980;2024-01-15T06:53:56;17.73;;;9.15;;
10383;SDS011;5238;43.508;4.980;2024-01-15T06:56:23;14.52;;;9.20;;
10383;SDS011;5238;43.508;4.980;2024-01-15T06:58:51;15.80;;;8.95;;
10383;SDS011;5238;43.508;4.980;2024-01-15T07:01:18;17.48;;;9.75;;
10383;SDS011;5238;43.508;4.980;2024-01-15T07:03:45;15.20;;;9.13;;
10383;SDS011;5238;43.508;4.980;2024-01-15T07:06:12;13.98;;;8.68;;
10383;SDS011;5238;43.508;4.980;2024-01-15T07:08:39;12.65;;;8.65;;
10383;SDS011;5238;43.508;4.980;2024-01-15T07:11:06;16.88;;;9.57;;
10383;SDS011;5238;43.508;4.980;2024-01-15T07:13:33;17.75;;;10.38;;
10383;SDS011;5238;43.508;4.980;2024-01-15T07:16:03;16.38;;;10.05;;
10383;SDS011;5238;43.508;4.980;2024-01-15T07:18:30;16.08;;;9.60;;
10383;SDS011;5238;43.508;4.980;2024-01-15T07:20:57;13.13;;;8.52;;
10383;SDS011;5238;43.508;4.980;2024-01-15T07:23:26;15.13;;;8.35;;
10383;SDS011;5238;43.508;4.980;2024-01-15T07:25:53;13.35;;;8.57;;
10383;SDS011;5238;43.508;4.980;2024-01-15T07:28:20;13.95;;;8.25;;
10383;SDS011;5238;43.508;4.980;2024-01-15T07:30:47;23.15;;;13.77;;
10383;SDS011;5238;43.508;4.980;2024-01-15T07:33:15;18.17;;;12.02;;
10383;SDS011;5238;43.508;4.980;2024-01-15T07:35:42;20.77;;;12.57;;
10383;SDS011;5238;43.508;4.980;2024-01-15T07:38:09;17.33;;;12.27;;
10383;SDS011;5238;43.508;4.980;2024-01-15T07:40:37;20.70;;;14.32;;
10383;SDS011;5238;43.508;4.980;2024-01-15T07:43:03;21.75;;;13.65;;
10383;SDS011;5238;43.508;4.980;2024-01-15T07:45:30;20.00;;;12.35;;
10383;SDS011;5238;43.508;4.980;2024-01-15T07:47:57;21.13;;;13.20;;
10383;SDS011;5238;43.508;4.980;2024-01-15T07:50:26;16.63;;;10.63;;
10383;SDS011;5238;43.508;4.980;2024-01-15T07:52:53;12.68;;;9.23;;
10383;SDS011;5238;43.508;4.980;2024-01-15T07:55:20;15.05;;;9.80;;
10383;SDS011;5238;43.508;4.980;2024-01-15T07:57:46;16.00;;;10.98;;
10383;SDS011;5238;43.508;4.980;2024-01-15T08:00:14;15.75;;;10.93;;
10383;SDS011;5238;43.508;4.980;2024-01-15T08:02:41;14.75;;;9.98;;
10383;SDS011;5238;43.508;4.980;2024-01-15T08:05:08;13.57;;;9.40;;
10383;SDS011;5238;43.508;4.980;2024-01-15T08:07:37;14.35;;;8.82;;
10383;SDS011;5238;43.508;4.980;2024-01-15T08:10:04;16.17;;;12.13;;
10383;SDS011;5238;43.508;4.980;2024-01-15T08:12:31;13.98;;;10.15;;
10383;SDS011;5238;43.508;4.980;2024-01-15T08:14:58;17.08;;;11.10;;
10383;SDS011;5238;43.508;4.980;2024-01-15T08:17:25;14.88;;;10.23;;
10383;SDS011;5238;43.508;4.980;2024-01-15T08:19:53;15.25;;;8.73;;
10383;SDS011;5238;43.508;4.980;2024-01-15T08:22:21;15.30;;;9.52;;
10383;SDS011;5238;43.508;4.980;2024-01-15T08:24:50;12.25;;;8.63;;
10383;SDS011;5238;43.508;4.980;2024-01-15T08:27:17;16.40;;;9.55;;
10383;SDS011;5238;43.508;4.980;2024-01-15T08:29:45;13.70;;;8.43;;
10383;SDS011;5238;43.508;4.980;2024-01-15T08:32:12;12.23;;;7.65;;
10383;SDS011;5238;43.508;4.980;2024-01-15T08:34:40;14.88;;;8.40;;
10383;SDS011;5238;43.508;4.980;2024-01-15T08:37:08;12.75;;;8.93;;
10383;SDS011;5238;43.508;4.980;2024-01-15T08:39:35;15.40;;;8.82;;
10383;SDS011;5238;43.508;4.980;2024-01-15T08:42:05;15.48;;;8.32;;
10383;SDS011;5238;43.508;4.980;2024-01-15T08:44:32;12.68;;;8.85;;
10383;SDS011;5238;43.508;4.980;2024-01-15T08:46:59;12.10;;;8.13;;
10383;SDS011;5238;43.508;4.980;2024-01-15T08:49:26;216.48;;;151.30;;
10383;SDS011;5238;43.508;4.980;2024-01-15T08:51:53;403.50;;;285.10;;
10383;SDS011;5238;43.508;4.980;2024-01-15T08:54:20;122.75;;;89.50;;
10383;SDS011;5238;43.508;4.980;2024-01-15T08:56:47;53.45;;;37.75;;
10383;SDS011;5238;43.508;4.980;2024-01-15T08:59:15;19.48;;;13.75;;
10383;SDS011;5238;43.508;4.980;2024-01-15T09:01:49;15.75;;;10.25;;
10383;SDS011;5238;43.508;4.980;2024-01-15T09:04:16;19.50;;;13.18;;
10383;SDS011;5238;43.508;4.980;2024-01-15T09:06:44;19.98;;;12.35;;
10383;SDS011;5238;43.508;4.980;2024-01-15T09:09:12;15.27;;;8.50;;
10383;SDS011;5238;43.508;4.980;2024-01-15T09:11:39;11.18;;;7.38;;
10383;SDS011;5238;43.508;4.980;2024-01-15T09:14:06;14.30;;;7.72;;
10383;SDS011;5238;43.508;4.980;2024-01-15T09:16:35;10.85;;;7.68;;
10383;SDS011;5238;43.508;4.980;2024-01-15T09:19:03;13.75;;;8.45;;
10383;SDS011;5238;43.508;4.980;2024-01-15T09:21:30;9.65;;;6.10;;
10383;SDS011;5238;43.508;4.980;2024-01-15T09:23:56;9.75;;;7.03;;
10383;SDS011;5238;43.508;4.980;2024-01-15T09:26:24;11.38;;;7.70;;
10383;SDS011;5238;43.508;4.980;2024-01-15T09:28:51;28.13;;;12.77;;
10383;SDS011;5238;43.508;4.980;2024-01-15T09:31:18;22.13;;;12.88;;
10383;SDS011;5238;43.508;4.980;2024-01-15T09:33:47;25.08;;;14.38;;
10383;SDS011;5238;43.508;4.980;2024-01-15T09:36:17;23.30;;;14.35;;
10383;SDS011;5238;43.508;4.980;2024-01-15T09:38:44;22.08;;;14.45;;
10383;SDS011;5238;43.508;4.980;2024-01-15T09:41:11;23.02;;;14.80;;
10383;SDS011;5238;43.508;4.980;2024-01-15T09:43:38;22.10;;;13.30;;
10383;SDS011;5238;43.508;4.980;2024-01-15T09:46:05;18.08;;;11.88;;
10383;SDS011;5238;43.508;4.980;2024-01-15T09:48:33;19.45;;;12.48;;
10383;SDS011;5238;43.508;4.980;2024-01-15T09:51:01;23.80;;;13.98;;
10383;SDS011;5238;43.508;4.980;2024-01-15T09:53:29;22.52;;;13.85;;
10383;SDS011;5238;43.508;4.980;2024-01-15T09:55:57;25.13;;;14.13;;
10383;SDS011;5238;43.508;4.980;2024-01-15T09:58:24;22.23;;;13.38;;
10383;SDS011;5238;43.508;4.980;2024-01-15T10:00:54;19.13;;;12.43;;
10383;SDS011;5238;43.508;4.980;2024-01-15T10:03:22;17.08;;;10.20;;
10383;SDS011;5238;43.508;4.980;2024-01-15T10:05:49;13.50;;;7.97;;
10383;SDS011;5238;43.508;4.980;2024-01-15T10:08:19;10.45;;;7.55;;
10383;SDS011;5238;43.508;4.980;2024-01-15T10:10:47;9.25;;;7.28;;
10383;SDS011;5238;43.508;4.980;2024-01-15T10:13:14;11.10;;;6.53;;
10383;SDS011;5238;43.508;4.980;2024-01-15T10:15:44;10.98;;;7.32;;
10383;SDS011;5238;43.508;4.980;2024-01-15T10:18:12;9.45;;;6.32;;
10383;SDS011;5238;43.508;4.980;2024-01-15T10:20:39;10.68;;;6.88;;
10383;SDS011;5238;43.508;4.980;2024-01-15T10:23:06;10.68;;;6.90;;
10383;SDS011;5238;43.508;4.980;2024-01-15T10:25:35;11.18;;;7.38;;
10383;SDS011;5238;43.508;4.980;2024-01-15T10:28:03;11.25;;;7.35;;
10383;SDS011;5238;43.508;4.980;2024-01-15T10:30:31;9.32;;;7.22;;
10383;SDS011;5238;43.508;4.980;2024-01-15T10:32:59;10.32;;;6.90;;
10383;SDS011;5238;43.508;4.980;2024-01-15T10:35:27;10.27;;;7.00;;
10383;SDS011;5238;43.508;4.980;2024-01-15T10:37:56;12.15;;;7.72;;
10383;SDS011;5238;43.508;4.980;2024-01-15T10:40:23;12.50;;;7.95;;
10383;SDS011;5238;43.508;4.980;2024-01-15T10:42:51;14.77;;;8.57;;
10383;SDS011;5238;43.508;4.980;2024-01-15T10:45:18;12.90;;;8.32;;
10383;SDS011;5238;43.508;4.980;2024-01-15T10:47:45;13.30;;;8.27;;
10383;SDS011;5238;43.508;4.980;2024-01-15T10:50:13;13.70;;;8.00;;
10383;SDS011;5238;43.508;4.980;2024-01-15T10:52:41;13.70;;;8.82;;
10383;SDS011;5238;43.508;4.980;2024-01-15T10:55:09;12.10;;;7.47;;
10383;SDS011;5238;43.508;4.980;2024-01-15T10:57:37;10.52;;;7.55;;
10383;SDS011;5238;43.508;4.980;2024-01-15T11:00:06;12.85;;;7.60;;
10383;SDS011;5238;43.508;4.980;2024-01-15T11:02:39;9.52;;;7.30;;
10383;SDS011;5238;43.508;4.980;2024-01-15T11:05:07;9.95;;;6.40;;
10383;SDS011;5238;43.508;4.980;2024-01-15T11:07:34;10.48;;;6.25;;
10383;SDS011;5238;43.508;4.980;2024-01-15T11:10:03;9.70;;;6.60;;
10383;SDS011;5238;43.508;4.980;2024-01-15T11:12:29;9.55;;;5.75;;
10383;SDS011;5238;43.508;4.980;2024-01-15T11:15:01;10.52;;;7.15;;
10383;SDS011;5238;43.508;4.980;2024-01-15T11:17:57;9.23;;;5.32;;
10383;SDS011;5238;43.508;4.980;2024-01-15T11:20:25;8.95;;;6.22;;
10383;SDS011;5238;43.508;4.980;2024-01-15T11:22:52;7.28;;;5.00;;
10383;SDS011;5238;43.508;4.980;2024-01-15T11:25:21;6.50;;;4.72;;
10383;SDS011;5238;43.508;4.980;2024-01-15T11:27:49;8.55;;;5.53;;
10383;SDS011;5238;43.508;4.980;2024-01-15T11:30:17;6.50;;;5.32;;
10383;SDS011;5238;43.508;4.980;2024-01-15T11:32:47;10.00;;;6.28;;
10383;SDS011;5238;43.508;4.980;2024-01-15T11:35:14;7.20;;;5.22;;
10383;SDS011;5238;43.508;4.980;2024-01-15T11:37:56;10.65;;;6.18;;
10383;SDS011;5238;43.508;4.980;2024-01-15T11:40:36;8.27;;;5.53;;
10383;SDS011;5238;43.508;4.980;2024-01-15T11:43:04;8.10;;;5.57;;
10383;SDS011;5238;43.508;4.980;2024-01-15T11:45:31;7.07;;;5.80;;
10383;SDS011;5238;43.508;4.980;2024-01-15T11:48:10;6.78;;;4.88;;
10383;SDS011;5238;43.508;4.980;2024-01-15T11:50:42;6.63;;;5.05;;
10383;SDS011;5238;43.508;4.980;2024-01-15T11:53:15;6.13;;;5.05;;
10383;SDS011;5238;43.508;4.980;2024-01-15T11:55:45;6.53;;;5.00;;
10383;SDS011;5238;43.508;4.980;2024-01-15T11:58:13;7.95;;;4.70;;
10383;SDS011;5238;43.508;4.980;2024-01-15T12:00:42;6.15;;;4.80;;
10383;SDS011;5238;43.508;4.980;2024-01-15T12:03:12;6.88;;;5.65;;
10383;SDS011;5238;43.508;4.980;2024-01-15T12:05:39;8.57;;;5.45;;
10383;SDS011;5238;43.508;4.980;2024-01-15T12:08:07;6.88;;;5.43;;
10383;SDS011;5238;43.508;4.980;2024-01-15T12:10:36;7.03;;;4.90;;
10383;SDS011;5238;43.508;4.980;2024-01-15T12:13:05;7.85;;;5.57;;
10383;SDS011;5238;43.508;4.980;2024-01-15T12:15:36;7.15;;;5.28;;
10383;SDS011;5238;43.508;4.980;2024-01-15T12:18:03;7.13;;;4.85;;
10383;SDS011;5238;43.508;4.980;2024-01-15T12:20:32;5.03;;;3.67;;
10383;SDS011;5238;43.508;4.980;2024-01-15T12:22:59;3.60;;;3.30;;
10383;SDS011;5238;43.508;4.980;2024-01-15T12:25:28;4.70;;;3.83;;
10383;SDS011;5238;43.508;4.980;2024-01-15T12:27:56;6.35;;;3.95;;
10383;SDS011;5238;43.508;4.980;2024-01-15T12:30:25;5.13;;;3.22;;
10383;SDS011;5238;43.508;4.980;2024-01-15T12:32:53;3.70;;;3.10;;
10383;SDS011;5238;43.508;4.980;2024-01-15T12:35:20;7.28;;;3.22;;
10383;SDS011;5238;43.508;4.980;2024-01-15T12:37:48;5.40;;;3.75;;
10383;SDS011;5238;43.508;4.980;2024-01-15T12:40:18;5.43;;;3.75;;
10383;SDS011;5238;43.508;4.980;2024-01-15T12:42:45;5.43;;;4.18;;
10383;SDS011;5238;43.508;4.980;2024-01-15T12:45:13;6.75;;;4.20;;
10383;SDS011;5238;43.508;4.980;2024-01-15T12:47:40;9.00;;;4.75;;
10383;SDS011;5238;43.508;4.980;2024-01-15T12:50:08;8.93;;;6.18;;
10383;SDS011;5238;43.508;4.980;2024-01-15T12:52:37;13.15;;;9.57;;
10383;SDS011;5238;43.508;4.980;2024-01-15T12:55:08;18.25;;;12.13;;
10383;SDS011;5238;43.508;4.980;2024-01-15T12:57:36;20.42;;;12.50;;
10383;SDS011;5238;43.508;4.980;2024-01-15T13:00:04;19.13;;;13.40;;
10383;SDS011;5238;43.508;4.980;2024-01-15T13:02:32;16.23;;;10.57;;
10383;SDS011;5238;43.508;4.980;2024-01-15T13:05:00;11.75;;;7.85;;
10383;SDS011;5238;43.508;4.980;2024-01-15T13:07:29;11.35;;;5.95;;
10383;SDS011;5238;43.508;4.980;2024-01-15T13:09:56;6.85;;;5.00;;
10383;SDS011;5238;43.508;4.980;2024-01-15T13:12:24;6.25;;;4.40;;
10383;SDS011;5238;43.508;4.980;2024-01-15T13:14:51;5.60;;;4.15;;
10383;SDS011;5238;43.508;4.980;2024-01-15T13:17:18;4.78;;;4.10;;
10383;SDS011;5238;43.508;4.980;2024-01-15T13:19:46;6.60;;;4.22;;
10383;SDS011;5238;43.508;4.980;2024-01-15T13:22:14;6.18;;;3.95;;
10383;SDS011;5238;43.508;4.980;2024-01-15T13:24:41;6.18;;;4.13;;
10383;SDS011;5238;43.508;4.980;2024-01-15T13:27:08;8.45;;;5.28;;
10383;SDS011;5238;43.508;4.980;2024-01-15T13:29:38;8.65;;;5.38;;
10383;SDS011;5238;43.508;4.980;2024-01-15T13:32:05;8.27;;;6.05;;
10383;SDS011;5238;43.508;4.980;2024-01-15T13:34:32;7.68;;;5.82;;
10383;SDS011;5238;43.508;4.980;2024-01-15T13:37:00;9.43;;;5.82;;
10383;SDS011;5238;43.508;4.980;2024-01-15T13:39:27;9.90;;;7.22;;
10383;SDS011;5238;43.508;4.980;2024-01-15T13:41:58;10.43;;;7.60;;
10383;SDS011;5238;43.508;4.980;2024-01-15T13:44:25;9.13;;;6.72;;
10383;SDS011;5238;43.508;4.980;2024-01-15T13:46:54;9.82;;;6.65;;
10383;SDS011;5238;43.508;4.980;2024-01-15T13:49:22;9.30;;;5.97;;
10383;SDS011;5238;43.508;4.980;2024-01-15T13:51:49;6.13;;;4.15;;
10383;SDS011;5238;43.508;4.980;2024-01-15T13:54:16;6.25;;;5.15;;
10383;SDS011;5238;43.508;4.980;2024-01-15T13:56:44;8.05;;;4.72;;
10383;SDS011;5238;43.508;4.980;2024-01-15T13:59:12;6.53;;;4.75;;
10383;SDS011;5238;43.508;4.980;2024-01-15T14:01:39;6.90;;;4.85;;
10383;SDS011;5238;43.508;4.980;2024-01-15T14:04:07;8.20;;;5.50;;
10383;SDS011;5238;43.508;4.980;2024-01-15T14:06:34;7.38;;;4.53;;
10383;SDS011;5238;43.508;4.980;2024-01-15T14:09:01;6.55;;;4.20;;
10383;SDS011;5238;43.508;4.980;2024-01-15T14:11:29;4.13;;;3.45;;
10383;SDS011;5238;43.508;4.980;2024-01-15T14:13:56;3.45;;;2.50;;
10383;SDS011;5238;43.508;4.980;2024-01-15T14:16:23;3.15;;;2.85;;
10383;SDS011;5238;43.508;4.980;2024-01-15T14:18:50;3.63;;;3.15;;
10383;SDS011;5238;43.508;4.980;2024-01-15T14:21:20;5.38;;;3.00;;
10383;SDS011;5238;43.508;4.980;2024-01-15T14:23:48;2.80;;;2.58;;
10383;SDS011;5238;43.508;4.980;2024-01-15T14:26:15;3.10;;;2.72;;
10383;SDS011;5238;43.508;4.980;2024-01-15T14:28:42;2.78;;;2.58;;
10383;SDS011;5238;43.508;4.980;2024-01-15T14:31:09;2.83;;;2.53;;
10383;SDS011;5238;43.508;4.980;2024-01-15T14:33:36;3.67;;;3.03;;
10383;SDS011;5238;43.508;4.980;2024-01-15T14:36:03;3.58;;;2.90;;
10383;SDS011;5238;43.508;4.980;2024-01-15T14:38:32;4.80;;;3.20;;
10383;SDS011;5238;43.508;4.980;2024-01-15T14:41:00;3.72;;;3.42;;
10383;SDS011;5238;43.508;4.980;2024-01-15T14:43:27;3.92;;;3.53;;
10383;SDS011;5238;43.508;4.980;2024-01-15T14:45:54;4.28;;;3.55;;